createdAt,value
2022-11-05T00:02:34.000Z,100386.11
2022-11-05T00:07:35.000Z,100384.17
2022-11-05T00:12:34.000Z,100384.68
2022-11-05T00:17:34.000Z,100384.68
2022-11-05T00:22:34.000Z,100388.29
2022-11-05T00:27:35.000Z,100397.61
2022-11-05T00:32:35.000Z,100403.93
2022-11-05T00:37:35.000Z,100405
2022-11-05T00:42:35.000Z,100406.32
2022-11-05T00:47:33.000Z,100412.52
2022-11-05T00:52:34.000Z,100416.01
2022-11-05T01:02:35.000Z,100421.11
2022-11-05T01:07:35.000Z,100423.56
2022-11-05T01:12:34.000Z,100420.2
2022-11-05T01:17:35.000Z,100425.87
2022-11-05T01:22:35.000Z,100433.24
2022-11-05T01:32:35.000Z,100440.93
2022-11-05T01:37:34.000Z,100443.32
2022-11-05T01:42:35.000Z,100443.97
2022-11-05T01:47:34.000Z,100449.98
2022-11-05T01:52:35.000Z,100455.59
2022-11-05T01:57:34.000Z,100464.17
2022-11-05T02:02:35.000Z,100471.18
2022-11-05T02:07:34.000Z,100474.86
2022-11-05T02:12:35.000Z,100480.64
2022-11-05T02:17:35.000Z,100489.26
2022-11-05T02:22:35.000Z,100489.26
2022-11-05T02:27:34.000Z,100483.69
2022-11-05T02:32:35.000Z,100497.52
2022-11-05T02:37:35.000Z,100496.44
2022-11-05T02:42:35.000Z,100493.42
2022-11-05T02:47:34.000Z,100488.63
2022-11-05T02:57:35.000Z,100494.14
2022-11-05T03:02:35.000Z,100494.14
2022-11-05T03:07:35.000Z,100502.71
2022-11-05T03:12:34.000Z,100507.21
2022-11-05T03:17:35.000Z,100514.85
2022-11-05T03:22:34.000Z,100513.87
2022-11-05T03:27:35.000Z,100517.9
2022-11-05T03:32:35.000Z,100520.11
2022-11-05T03:37:35.000Z,100528.53
2022-11-05T03:42:35.000Z,100534.3
2022-11-05T03:47:35.000Z,100536.22
2022-11-05T03:52:35.000Z,100544.07
2022-11-05T03:57:35.000Z,100547.49
2022-11-05T04:02:35.000Z,100556.17
2022-11-05T04:07:35.000Z,100560.08
2022-11-05T04:12:34.000Z,100560.08
2022-11-05T04:17:35.000Z,100565.7
2022-11-05T04:22:35.000Z,100570.62
2022-11-05T04:27:35.000Z,100570.13
2022-11-05T04:32:34.000Z,100567.3
2022-11-05T04:37:35.000Z,100569.54
2022-11-05T04:42:35.000Z,100574.69
2022-11-05T04:47:35.000Z,100575.2
2022-11-05T04:52:34.000Z,100579.76
2022-11-05T04:57:35.000Z,100582.55
2022-11-05T05:02:34.000Z,100589.47
2022-11-05T05:07:35.000Z,100591.82
2022-11-05T05:12:35.000Z,100593.01
2022-11-05T05:17:34.000Z,100592.38
2022-11-05T05:22:35.000Z,100592.38
2022-11-05T05:27:35.000Z,100599.54
2022-11-05T05:32:34.000Z,100600.27
2022-11-05T05:37:35.000Z,100612.47
2022-11-05T05:42:34.000Z,100609.95
2022-11-05T05:47:34.000Z,100619.73
2022-11-05T05:52:34.000Z,100626.02
2022-11-05T05:57:35.000Z,100630.96
2022-11-05T06:02:34.000Z,100635.26
2022-11-05T06:07:35.000Z,100639.82
2022-11-05T06:12:35.000Z,100641.05
2022-11-05T06:17:34.000Z,100641.05
2022-11-05T06:22:35.000Z,100646.07
2022-11-05T06:27:35.000Z,100647.68
2022-11-05T06:32:35.000Z,100649.96
2022-11-05T06:37:35.000Z,100652.08
2022-11-05T06:42:35.000Z,100652.48
2022-11-05T06:47:35.000Z,100657.7
2022-11-05T06:52:35.000Z,100667.54
2022-11-05T06:57:35.000Z,100671.09
2022-11-05T07:02:34.000Z,100671.77
2022-11-05T07:07:35.000Z,100674.94
2022-11-05T07:12:34.000Z,100676.96
2022-11-05T07:17:35.000Z,100679.88
2022-11-05T07:22:35.000Z,100684.12
2022-11-05T07:27:34.000Z,100681.08
2022-11-05T07:32:35.000Z,100681.08
2022-11-05T07:37:35.000Z,100682.83
2022-11-05T07:42:35.000Z,100691.39
2022-11-05T07:47:35.000Z,100692.71
2022-11-05T07:52:35.000Z,100693.28
2022-11-05T07:57:35.000Z,100703.18
2022-11-05T08:02:35.000Z,100703.95
2022-11-05T08:07:34.000Z,100707.48
2022-11-05T08:12:34.000Z,100715.85
2022-11-05T08:17:35.000Z,100724.49
2022-11-05T08:22:34.000Z,100728.49
2022-11-05T08:27:34.000Z,100732.61
2022-11-05T08:32:34.000Z,100740.86
2022-11-05T08:37:34.000Z,100741.15
2022-11-05T08:42:34.000Z,100741.15
2022-11-05T08:52:35.000Z,100730.2
2022-11-05T08:57:34.000Z,100733.46
2022-11-05T09:02:35.000Z,100724.89
2022-11-05T09:07:34.000Z,100724.89
2022-11-05T09:12:35.000Z,100732.32
2022-11-05T09:17:35.000Z,100736.55
2022-11-05T09:22:35.000Z,100739.45
2022-11-05T09:27:34.000Z,100742.3
2022-11-05T09:32:35.000Z,100744.53
2022-11-05T09:37:34.000Z,100744.33
2022-11-05T09:42:35.000Z,100743.59
2022-11-05T09:47:35.000Z,100748.7
2022-11-05T09:52:35.000Z,100746.04
2022-11-05T09:57:35.000Z,100747.75
2022-11-05T10:02:35.000Z,100752.78
2022-11-05T10:07:34.000Z,100752.97
2022-11-05T10:12:35.000Z,100753.63
2022-11-05T10:17:35.000Z,100757.7
2022-11-05T10:22:35.000Z,100757.7
2022-11-05T10:27:35.000Z,100768.3
2022-11-05T10:32:34.000Z,100774.7
2022-11-05T10:37:35.000Z,100773.14
2022-11-05T10:42:34.000Z,100776.53
2022-11-05T10:47:34.000Z,100789.84
2022-11-05T10:52:35.000Z,100796.68
2022-11-05T10:57:35.000Z,100795.01
2022-11-05T11:02:34.000Z,100788.87
2022-11-05T11:07:35.000Z,100788.4
2022-11-05T11:12:34.000Z,100788.91
2022-11-05T11:17:35.000Z,100794.15
2022-11-05T11:22:35.000Z,100804.44
2022-11-05T11:27:35.000Z,100810.52
2022-11-05T11:32:34.000Z,100807.33
2022-11-05T11:37:35.000Z,100807.33
2022-11-05T11:42:35.000Z,100811.83
2022-11-05T11:47:34.000Z,100816.16
2022-11-05T11:52:35.000Z,100820.74
2022-11-05T11:57:35.000Z,100823.4
2022-11-05T12:02:35.000Z,100827.23
2022-11-05T12:07:35.000Z,100828.14
2022-11-05T12:12:35.000Z,100830.95
2022-11-05T12:22:35.000Z,100834.3
2022-11-05T12:32:35.000Z,100835.58
2022-11-05T12:37:35.000Z,100835.58
2022-11-05T12:42:35.000Z,100834.26
2022-11-05T12:47:34.000Z,100836.62
2022-11-05T12:52:34.000Z,100840.19
2022-11-05T12:57:35.000Z,100846.27
2022-11-05T13:02:34.000Z,100851.67
2022-11-05T13:07:34.000Z,100858.97
2022-11-05T13:12:34.000Z,100862.06
2022-11-05T13:17:35.000Z,100868.83
2022-11-05T13:22:34.000Z,100871.24
2022-11-05T13:27:35.000Z,100874.01
2022-11-05T13:32:34.000Z,100877.06
2022-11-05T13:37:35.000Z,100881.2
2022-11-05T13:42:34.000Z,100879.99
2022-11-05T13:47:35.000Z,100895.21
2022-11-05T13:52:35.000Z,100895.21
2022-11-05T13:57:34.000Z,100904.61
2022-11-05T14:02:35.000Z,100911.49
2022-11-05T14:07:35.000Z,100912.95
2022-11-05T14:12:35.000Z,100920.17
2022-11-05T14:17:35.000Z,100923.2
2022-11-05T14:22:34.000Z,100926.74
2022-11-05T14:27:35.000Z,100933.46
2022-11-05T14:32:34.000Z,100934.92
2022-11-05T14:37:35.000Z,100934.11
2022-11-05T14:42:35.000Z,100930.09
2022-11-05T14:47:34.000Z,100919.35
2022-11-05T14:52:35.000Z,100923.62
2022-11-05T14:57:34.000Z,100922.9
2022-11-05T15:02:35.000Z,100925.03
2022-11-05T15:07:34.000Z,100925.03
2022-11-05T15:12:34.000Z,100932.57
2022-11-05T15:17:34.000Z,100938.41
2022-11-05T15:22:34.000Z,100940.87
2022-11-05T15:27:35.000Z,100943.59
2022-11-05T15:32:34.000Z,100946.26
2022-11-05T15:37:35.000Z,100953.22
2022-11-05T15:42:35.000Z,100956.04
2022-11-05T15:47:34.000Z,100965.53
2022-11-05T15:52:34.000Z,100970.19
2022-11-05T15:57:34.000Z,100966.57
2022-11-05T16:02:35.000Z,100967.06
2022-11-05T16:07:34.000Z,100969.15
2022-11-05T16:12:34.000Z,100969.35
2022-11-05T16:17:35.000Z,100964.36
2022-11-05T16:22:34.000Z,100964.36
2022-11-05T16:27:35.000Z,100960.96
2022-11-05T16:32:40.000Z,100963.81
2022-11-05T16:37:35.000Z,100966.07
2022-11-05T16:42:35.000Z,100971.29
2022-11-05T16:47:35.000Z,100970.47
2022-11-05T16:52:35.000Z,100972.79
2022-11-05T16:57:35.000Z,100973.58
2022-11-05T17:02:35.000Z,100975.4
2022-11-05T17:07:35.000Z,100975.92
2022-11-05T17:12:35.000Z,100975.56
2022-11-05T17:17:34.000Z,100977.04
2022-11-05T17:22:35.000Z,100985.45
2022-11-05T17:27:34.000Z,100989.79
2022-11-05T17:32:34.000Z,100990.84
2022-11-05T17:37:35.000Z,100990.84
2022-11-05T17:42:35.000Z,100994.51
2022-11-05T17:47:34.000Z,100998.34
2022-11-05T17:52:35.000Z,101000.77
2022-11-05T17:57:35.000Z,100992.2
2022-11-05T18:02:34.000Z,100999.03
2022-11-05T18:07:35.000Z,101006.35
2022-11-05T18:12:34.000Z,101010.2
2022-11-05T18:17:35.000Z,101012.31
2022-11-05T18:22:34.000Z,101005.02
2022-11-05T18:27:35.000Z,100998.8
2022-11-05T18:32:35.000Z,101003.71
2022-11-05T18:37:35.000Z,101003.71
2022-11-05T18:42:34.000Z,101005.57
2022-11-05T18:47:35.000Z,101012.55
2022-11-05T18:52:34.000Z,101012.55
2022-11-05T19:02:34.000Z,101022.49
2022-11-05T19:07:34.000Z,101020.3
2022-11-05T19:12:35.000Z,101030.14
2022-11-05T19:17:34.000Z,101033.38
2022-11-05T19:22:34.000Z,101034.87
2022-11-05T19:27:35.000Z,101036.68
2022-11-05T19:32:35.000Z,101047.77
2022-11-05T19:37:35.000Z,101046.55
2022-11-05T19:42:35.000Z,101041.45
2022-11-05T19:47:34.000Z,101047.99
2022-11-05T19:52:34.000Z,101053.09
2022-11-05T19:57:34.000Z,101053.09
2022-11-05T20:02:35.000Z,101052.92
2022-11-05T20:07:34.000Z,101045.05
2022-11-05T20:12:35.000Z,101046.62
2022-11-05T20:17:35.000Z,101053.57
2022-11-05T20:22:34.000Z,101059.69
2022-11-05T20:27:34.000Z,101062.84
2022-11-05T20:32:34.000Z,101063.45
2022-11-05T20:37:35.000Z,101059.16
2022-11-05T20:42:34.000Z,101061.16
2022-11-05T20:47:35.000Z,101065.32
2022-11-05T20:52:34.000Z,101063.92
2022-11-05T20:57:35.000Z,101065.83
2022-11-05T21:02:34.000Z,101063.74
2022-11-05T21:07:35.000Z,101060.05
2022-11-05T21:12:35.000Z,101060.05
2022-11-05T21:17:34.000Z,101052.26
2022-11-05T21:22:35.000Z,101052.08
2022-11-05T21:27:34.000Z,101047.95
2022-11-05T21:32:35.000Z,101043.07
2022-11-05T21:42:35.000Z,101058.44
2022-11-05T21:47:34.000Z,101061.96
2022-11-05T21:52:35.000Z,101065.88
2022-11-05T21:57:35.000Z,101065.88
2022-11-05T22:02:35.000Z,101074.5
2022-11-05T22:07:35.000Z,101074.6
2022-11-05T22:12:35.000Z,101075.43
2022-11-05T22:17:35.000Z,101069.61
2022-11-05T22:22:35.000Z,101065.25
2022-11-05T22:27:34.000Z,101066.83
2022-11-05T22:32:35.000Z,101069.29
2022-11-05T22:37:35.000Z,101076.51
2022-11-05T22:42:35.000Z,101079.29
2022-11-05T22:47:34.000Z,101084.71
2022-11-05T22:52:35.000Z,101088.01
2022-11-05T22:57:35.000Z,101094.97
2022-11-05T23:02:34.000Z,101099.75
2022-11-05T23:07:38.000Z,101103.09
2022-11-05T23:12:35.000Z,101103.09
2022-11-05T23:17:34.000Z,101106.93
2022-11-05T23:22:35.000Z,101110.44
2022-11-05T23:27:34.000Z,101111.8
2022-11-05T23:32:35.000Z,101117.03
2022-11-05T23:37:34.000Z,101116.42
2022-11-05T23:42:35.000Z,101116.7
2022-11-05T23:47:35.000Z,101116.78
2022-11-05T23:52:35.000Z,101117.12
2022-11-05T23:57:34.000Z,101107.4
